Time;durP1;ratioP1;P1;durP2;ratioP2;P2;SDS_P1;SDS_P2;PMS_P1;PMS_P2;Temp;Humidity;BMP_temperature;BMP_pressure;BME280_temperature;BME280_humidity;BME280_pressure;Samples;Min_cycle;Max_cycle;Signal;HPM_P1;HPM_P2
2023/10/21 00:01:28;;;;;;;12.15;6.65;;;;;;;18.69;39.32;94540.41;5030562;28;20374;-84
2023/10/21 00:03:53;;;;;;;10.50;6.43;;;;;;;18.68;39.32;94552.81;5013288;28;20109;-84
2023/10/21 00:06:19;;;;;;;14.32;7.35;;;;;;;18.63;39.35;94545.16;5030517;28;20462;-84
2023/10/21 00:08:44;;;;;;;12.25;6.30;;;;;;;18.61;39.64;94528.22;5029643;28;20044;-83
2023/10/21 00:11:12;;;;;;;11.40;5.18;;;;;;;18.65;39.69;94543.44;5030406;28;20029;-84
2023/10/21 00:13:37;;;;;;;11.52;4.15;;;;;;;18.63;39.69;94548.72;5048189;28;20060;-84
2023/10/21 00:16:03;;;;;;;12.30;4.43;;;;;;;18.62;39.97;94552.00;5013455;28;20055;-83
2023/10/21 00:18:28;;;;;;;9.05;4.60;;;;;;;18.64;39.54;94552.25;5013805;28;20462;-84
2023/10/21 00:20:54;;;;;;;12.52;4.65;;;;;;;18.62;40.21;94552.00;5029442;28;20509;-84
2023/10/21 00:23:21;;;;;;;8.65;3.97;;;;;;;18.63;39.91;94559.09;5013996;28;20025;-83
2023/10/21 00:25:46;;;;;;;12.52;4.05;;;;;;;18.58;40.18;94560.59;5012845;28;20087;-85
2023/10/21 00:28:11;;;;;;;9.73;3.78;;;;;;;18.52;40.40;94543.09;5048377;28;20312;-84
2023/10/21 00:30:37;;;;;;;6.95;3.63;;;;;;;18.46;40.41;94548.63;5029340;28;20017;-84
2023/10/21 00:33:03;;;;;;;7.00;3.58;;;;;;;18.49;40.58;94583.06;5029017;28;20029;-83
2023/10/21 00:35:31;;;;;;;9.82;3.40;;;;;;;18.44;40.89;94576.19;5047344;28;20049;-84
2023/10/21 00:37:56;;;;;;;11.57;3.83;;;;;;;18.43;40.90;94568.34;5029461;28;20040;-85
2023/10/21 00:40:22;;;;;;;6.80;3.42;;;;;;;18.49;40.91;94581.03;5030465;28;20109;-84
2023/10/21 00:42:48;;;;;;;8.45;3.17;;;;;;;18.36;41.29;94577.19;5012368;28;20135;-84
2023/10/21 00:45:13;;;;;;;11.35;3.67;;;;;;;18.28;41.48;94566.50;5030341;28;20032;-84
2023/10/21 00:47:39;;;;;;;10.30;4.10;;;;;;;18.32;41.72;94574.63;5029058;28;20021;-84
2023/10/21 00:50:05;;;;;;;8.88;3.15;;;;;;;18.27;41.63;94576.09;5013014;28;20030;-84
2023/10/21 00:52:30;;;;;;;6.60;3.10;;;;;;;18.23;41.74;94588.72;5029143;28;20040;-84
2023/10/21 00:54:57;;;;;;;10.25;3.15;;;;;;;18.22;42.17;94587.94;5029296;28;20025;-84
2023/10/21 00:57:23;;;;;;;6.05;3.60;;;;;;;18.17;42.22;94583.09;5013347;28;20055;-85
2023/10/21 00:59:49;;;;;;;9.88;3.72;;;;;;;18.14;42.38;94580.56;5012255;28;20408;-84
2023/10/21 01:02:15;;;;;;;10.35;3.90;;;;;;;18.14;42.33;94583.34;5013374;28;20487;-84
2023/10/21 01:04:40;;;;;;;8.15;3.45;;;;;;;18.07;42.06;94579.00;5028750;28;20045;-84
2023/10/21 01:07:14;;;;;;;6.50;3.22;;;;;;;18.07;42.04;94584.56;5029209;28;20558;-85
2023/10/21 01:09:40;;;;;;;11.50;5.80;;;;;;;18.06;42.16;94594.16;5012231;28;20051;-85
2023/10/21 01:12:05;;;;;;;14.18;7.38;;;;;;;18.04;42.26;94591.88;5029086;28;20115;-83
2023/10/21 01:14:30;;;;;;;6.30;4.15;;;;;;;17.93;42.53;94594.56;5030207;28;20039;-84
2023/10/21 01:16:56;;;;;;;9.02;3.65;;;;;;;17.88;42.63;94584.16;5035085;28;20056;-84
2023/10/21 01:19:21;;;;;;;6.85;3.40;;;;;;;17.85;42.92;94592.72;5030756;28;20035;-84
2023/10/21 01:21:46;;;;;;;5.53;3.45;;;;;;;17.91;42.70;94593.53;5028203;28;20044;-85
2023/10/21 01:24:12;;;;;;;10.45;3.35;;;;;;;17.87;42.84;94590.22;5029200;28;20036;-84
2023/10/21 01:26:38;;;;;;;10.25;3.80;;;;;;;17.84;42.80;94589.19;5028285;28;20118;-84
2023/10/21 01:29:09;;;;;;;10.18;3.17;;;;;;;17.93;42.65;94591.78;5029058;28;20466;-84
2023/10/21 01:31:35;;;;;;;6.50;3.42;;;;;;;17.86;42.89;94588.69;5012923;28;20057;-84
2023/10/21 01:34:00;;;;;;;10.98;3.47;;;;;;;17.77;43.36;94595.19;5011588;28;20483;-83
2023/10/21 01:36:27;;;;;;;9.13;4.00;;;;;;;17.71;43.11;94581.19;5029246;28;20035;-84
2023/10/21 01:38:52;;;;;;;10.13;3.47;;;;;;;17.71;43.36;94586.00;5028088;28;20064;-84
2023/10/21 01:41:18;;;;;;;8.35;4.53;;;;;;;17.67;43.22;94575.13;5029125;28;20133;-84
2023/10/21 01:43:44;;;;;;;10.43;4.05;;;;;;;17.66;43.53;94590.28;5028065;28;20016;-84
2023/10/21 01:46:09;;;;;;;15.50;4.22;;;;;;;17.68;43.45;94581.44;5028588;28;20107;-84
2023/10/21 01:48:35;;;;;;;10.57;3.83;;;;;;;17.59;43.74;94584.38;5011483;28;20443;-84
2023/10/21 01:51:04;;;;;;;5.45;3.50;;;;;;;17.60;43.59;94580.34;5028514;28;20075;-84
2023/10/21 01:53:31;;;;;;;5.93;3.08;;;;;;;17.62;43.85;94586.94;5029110;28;20032;-84
2023/10/21 01:56:03;;;;;;;8.30;3.58;;;;;;;17.62;43.66;94609.19;5027997;28;20025;-84
2023/10/21 01:58:31;;;;;;;9.73;3.40;;;;;;;17.61;43.77;94590.97;5029036;28;20108;-83
2023/10/21 02:00:57;;;;;;;8.45;3.80;;;;;;;17.53;44.02;94593.41;5027762;28;20162;-84
2023/10/21 02:03:23;;;;;;;8.43;3.33;;;;;;;17.47;43.87;94572.38;5028643;28;20507;-84
2023/10/21 02:05:48;;;;;;;8.27;3.20;;;;;;;17.43;43.83;94571.84;5045598;28;20196;-84
2023/10/21 02:08:14;;;;;;;7.70;3.67;;;;;;;17.45;43.95;94588.81;5045827;28;20036;-84
2023/10/21 02:10:39;;;;;;;7.20;3.45;;;;;;;17.37;44.04;94585.66;5028159;28;20110;-84
2023/10/21 02:13:05;;;;;;;9.07;3.50;;;;;;;17.37;44.08;94602.34;5027392;28;20039;-84
2023/10/21 02:15:30;;;;;;;7.10;3.55;;;;;;;17.33;44.22;94604.59;5028602;28;20033;-84
2023/10/21 02:17:55;;;;;;;9.23;3.20;;;;;;;17.28;44.42;94573.97;5027699;28;20071;-84
2023/10/21 02:20:21;;;;;;;7.03;3.28;;;;;;;17.34;44.42;94610.91;5046206;28;20507;-83
2023/10/21 02:22:46;;;;;;;7.93;4.03;;;;;;;17.26;44.65;94607.78;5011093;28;20025;-85
2023/10/21 02:25:12;;;;;;;8.13;3.85;;;;;;;17.20;44.69;94604.19;5027795;28;20041;-85
2023/10/21 02:27:39;;;;;;;8.05;4.43;;;;;;;17.19;44.71;94611.00;5011082;28;20423;-85
2023/10/21 02:30:14;;;;;;;6.72;3.70;;;;;;;17.16;44.77;94611.97;5027841;28;20033;-85
2023/10/21 02:32:47;;;;;;;7.82;4.35;;;;;;;17.13;44.74;94610.16;5028499;28;20025;-85
2023/10/21 02:35:13;;;;;;;9.10;4.15;;;;;;;17.15;44.79;94630.66;5026978;28;20065;-84
2023/10/21 02:37:38;;;;;;;29.38;19.23;;;;;;;17.11;44.83;94615.47;5028431;28;20530;-84
2023/10/21 02:40:04;;;;;;;10.88;5.50;;;;;;;17.12;45.04;94609.41;5027148;28;20057;-85
2023/10/21 02:42:30;;;;;;;7.18;4.68;;;;;;;17.15;45.01;94625.09;5045858;28;20036;-84
2023/10/21 02:44:55;;;;;;;10.60;3.75;;;;;;;17.08;45.05;94622.72;5010869;28;20017;-85
2023/10/21 02:47:21;;;;;;;11.18;4.03;;;;;;;17.03;45.05;94617.09;5027578;28;20027;-85
2023/10/21 02:49:46;;;;;;;8.10;3.65;;;;;;;17.04;45.33;94618.66;5011367;28;20086;-85
2023/10/21 02:52:13;;;;;;;8.70;3.80;;;;;;;17.04;45.45;94629.78;5026902;28;20340;-85
2023/10/21 02:54:38;;;;;;;10.27;4.80;;;;;;;16.91;45.45;94630.84;5011976;28;20029;-83
2023/10/21 02:57:04;;;;;;;10.95;3.70;;;;;;;16.90;45.68;94625.78;5049060;28;20029;-83
2023/10/21 02:59:30;;;;;;;8.52;3.78;;;;;;;16.86;45.47;94625.22;5032061;28;20021;-84
2023/10/21 03:01:56;;;;;;;10.07;3.83;;;;;;;16.87;45.53;94632.34;5031337;28;20086;-84
2023/10/21 03:04:21;;;;;;;4.80;3.17;;;;;;;16.86;45.50;94630.78;5031801;28;20025;-85
2023/10/21 03:06:47;;;;;;;7.40;3.40;;;;;;;16.83;45.32;94631.78;5015507;28;20021;-86
2023/10/21 03:09:12;;;;;;;8.68;3.28;;;;;;;16.84;45.63;94631.28;5031863;28;20021;-84
2023/10/21 03:11:37;;;;;;;12.23;4.63;;;;;;;16.81;45.42;94639.81;5049986;28;20510;-85
2023/10/21 03:14:03;;;;;;;9.32;3.80;;;;;;;16.79;45.62;94636.75;5014196;28;20104;-84
2023/10/21 03:16:28;;;;;;;8.75;3.72;;;;;;;16.71;45.61;94625.31;5032113;28;20013;-84
2023/10/21 03:18:54;;;;;;;12.73;4.32;;;;;;;16.71;45.78;94625.31;5014608;28;20514;-84
2023/10/21 03:21:19;;;;;;;10.85;3.75;;;;;;;16.63;46.05;94630.47;5014833;28;20598;-83
2023/10/21 03:23:45;;;;;;;9.57;3.80;;;;;;;16.57;46.14;94632.38;5020480;28;20107;-86
2023/10/21 03:26:11;;;;;;;5.88;3.15;;;;;;;16.62;46.42;94628.16;5033892;28;20033;-84
2023/10/21 03:28:38;;;;;;;10.07;3.92;;;;;;;16.57;46.36;94635.16;5031955;28;20106;-85
2023/10/21 03:31:04;;;;;;;11.75;3.75;;;;;;;16.48;46.90;94640.84;5014375;28;20487;-84
2023/10/21 03:33:30;;;;;;;7.60;3.33;;;;;;;16.39;46.89;94633.41;5031833;28;20040;-84
2023/10/21 03:35:58;;;;;;;9.38;4.00;;;;;;;16.40;47.08;94636.94;5013795;28;20064;-83
2023/10/21 03:38:24;;;;;;;12.27;3.92;;;;;;;16.41;47.27;94638.50;5031081;28;20064;-83
2023/10/21 03:41:14;;;;;;;14.77;4.07;;;;;;;16.29;47.54;94653.44;5030678;28;20118;-84
2023/10/21 03:43:40;;;;;;;10.32;3.90;;;;;;;16.20;47.82;94630.09;5048504;28;20040;-84
2023/10/21 03:46:14;;;;;;;8.20;4.10;;;;;;;16.22;47.97;94637.16;5031609;28;20307;-86
2023/10/21 03:48:39;;;;;;;11.63;5.10;;;;;;;16.20;47.93;94629.34;5030990;28;20031;-83
2023/10/21 03:51:10;;;;;;;9.52;4.45;;;;;;;16.18;48.21;94631.84;5014460;28;20033;-83
2023/10/21 03:53:35;;;;;;;9.02;4.03;;;;;;;16.18;48.24;94643.69;5030697;28;20033;-84
2023/10/21 03:56:01;;;;;;;13.85;4.38;;;;;;;16.11;48.65;94640.53;5014336;28;20021;-83
2023/10/21 03:58:27;;;;;;;13.02;4.63;;;;;;;16.07;48.47;94639.97;5013621;28;20499;-83
2023/10/21 04:00:53;;;;;;;9.32;5.20;;;;;;;16.09;48.62;94641.00;5030606;28;20040;-83
2023/10/21 04:03:19;;;;;;;11.45;5.47;;;;;;;15.92;49.12;94629.66;5031255;28;20107;-83
2023/10/21 04:05:45;;;;;;;13.10;4.93;;;;;;;15.93;49.16;94620.09;5013660;28;20172;-83
2023/10/21 04:08:11;;;;;;;11.13;4.90;;;;;;;15.90;49.28;94634.16;5029181;28;20060;-85
2023/10/21 04:10:36;;;;;;;11.95;4.72;;;;;;;15.82;49.39;94627.47;5047933;28;20028;-85
2023/10/21 04:13:02;;;;;;;8.63;4.63;;;;;;;15.80;49.49;94627.94;5030445;28;20053;-83
2023/10/21 04:15:28;;;;;;;7.35;4.30;;;;;;;15.76;49.89;94627.38;5013309;28;20029;-85
2023/10/21 04:17:53;;;;;;;13.90;4.75;;;;;;;15.79;49.79;94633.97;5030531;28;20033;-84
2023/10/21 04:20:19;;;;;;;9.13;4.82;;;;;;;15.72;49.85;94628.81;5013605;28;20036;-85
2023/10/21 04:22:44;;;;;;;11.73;4.90;;;;;;;15.71;50.08;94628.03;5013436;28;20028;-84
2023/10/21 04:25:13;;;;;;;9.65;5.32;;;;;;;15.62;50.25;94628.91;5030771;28;20075;-85
2023/10/21 04:27:38;;;;;;;9.93;5.47;;;;;;;15.58;50.24;94633.06;5047333;28;20075;-85
2023/10/21 04:30:04;;;;;;;11.68;4.93;;;;;;;15.50;50.40;94624.38;5030647;28;20131;-84
2023/10/21 04:32:30;;;;;;;14.27;5.45;;;;;;;15.56;50.36;94633.56;5029525;28;20021;-84
2023/10/21 04:34:56;;;;;;;13.43;5.15;;;;;;;15.50;50.60;94641.00;5029892;28;20053;-84
2023/10/21 04:37:22;;;;;;;12.25;5.50;;;;;;;15.48;50.62;94643.47;5029607;28;20064;-84
2023/10/21 04:39:47;;;;;;;17.65;4.75;;;;;;;15.41;50.58;94649.38;5047824;28;20106;-83
2023/10/21 04:42:13;;;;;;;9.10;5.20;;;;;;;15.49;50.57;94649.78;5013493;28;20303;-84
2023/10/21 04:44:38;;;;;;;9.65;5.88;;;;;;;15.44;50.69;94661.53;5047057;28;20040;-85
2023/10/21 04:47:04;;;;;;;10.13;4.63;;;;;;;15.46;50.81;94662.56;5013521;28;20029;-83
2023/10/21 04:49:30;;;;;;;6.78;4.82;;;;;;;15.37;50.91;94670.97;5029008;28;20025;-84
2023/10/21 04:51:55;;;;;;;13.15;6.40;;;;;;;15.35;50.97;94659.59;5029711;28;20035;-84
2023/10/21 04:54:21;;;;;;;11.88;5.55;;;;;;;15.38;51.20;94666.97;5028861;28;20037;-86
2023/10/21 04:56:47;;;;;;;9.20;5.05;;;;;;;15.22;51.40;94664.63;5030350;28;20024;-86
2023/10/21 04:59:12;;;;;;;13.35;5.65;;;;;;;15.17;51.48;94668.81;5047994;28;20452;-87
2023/10/21 05:01:37;;;;;;;8.23;4.75;;;;;;;15.16;51.46;94677.59;5031798;28;20031;-87
2023/10/21 05:04:03;;;;;;;9.38;4.72;;;;;;;15.17;51.48;94684.66;5015782;28;20365;-87
2023/10/21 05:06:28;;;;;;;13.38;5.97;;;;;;;15.17;51.52;94699.28;5013216;28;20057;-87
2023/10/21 05:08:54;;;;;;;12.70;4.88;;;;;;;15.21;50.98;94691.56;5048267;28;20055;-87
2023/10/21 05:11:19;;;;;;;9.95;4.60;;;;;;;15.22;51.02;94684.00;5029725;28;20071;-87
2023/10/21 05:13:45;;;;;;;10.73;5.47;;;;;;;15.28;51.39;94698.72;5013384;28;20052;-86
2023/10/21 05:16:11;;;;;;;11.18;5.30;;;;;;;15.25;51.07;94700.44;5029596;28;20029;-87
2023/10/21 05:18:38;;;;;;;10.23;5.38;;;;;;;15.28;51.24;94705.03;5029448;28;20074;-87
2023/10/21 05:21:06;;;;;;;12.35;5.45;;;;;;;15.36;50.74;94699.88;5030098;28;20262;-87
2023/10/21 05:23:32;;;;;;;10.98;4.70;;;;;;;15.36;50.83;94719.28;5013416;28;20561;-87
2023/10/21 05:25:58;;;;;;;6.47;4.60;;;;;;;15.32;51.20;94708.41;5030882;28;20125;-87
2023/10/21 05:28:24;;;;;;;8.00;4.50;;;;;;;15.26;51.26;94706.75;5047674;28;20025;-87
2023/10/21 05:30:49;;;;;;;10.07;4.68;;;;;;;15.23;51.46;94716.00;5019607;28;20553;-87
2023/10/21 05:33:16;;;;;;;7.18;4.45;;;;;;;15.20;51.63;94708.66;5035082;28;20086;-87
2023/10/21 05:35:41;;;;;;;9.57;5.40;;;;;;;15.23;51.61;94735.38;5030090;28;20532;-86
2023/10/21 05:38:07;;;;;;;12.20;4.93;;;;;;;15.18;51.74;94722.19;5029930;28;20078;-87
2023/10/21 05:40:32;;;;;;;8.25;4.63;;;;;;;15.28;51.51;94741.03;5029146;28;20429;-87
2023/10/21 05:42:57;;;;;;;11.45;5.05;;;;;;;15.31;51.02;94725.47;5030047;28;20025;-87
2023/10/21 05:45:23;;;;;;;15.25;5.43;;;;;;;15.37;51.11;94734.69;5012876;28;20409;-88
2023/10/21 05:47:49;;;;;;;9.38;5.13;;;;;;;15.41;50.94;94741.53;5029899;28;20021;-87
2023/10/21 05:50:19;;;;;;;10.02;5.43;;;;;;;15.40;50.77;94739.25;5012346;28;20025;-88
2023/10/21 05:52:45;;;;;;;14.15;5.55;;;;;;;15.46;50.71;94742.13;5013407;28;20043;-87
2023/10/21 05:55:10;;;;;;;17.98;5.63;;;;;;;15.51;50.81;94744.25;5029266;28;20041;-87
2023/10/21 05:57:35;;;;;;;10.90;5.00;;;;;;;15.60;50.27;94739.41;5047293;28;20025;-87
2023/10/21 06:00:01;;;;;;;10.25;4.80;;;;;;;15.74;50.23;94723.31;5013031;28;20099;-87
2023/10/21 06:02:26;;;;;;;12.13;5.30;;;;;;;15.81;50.43;94753.44;5029010;28;20025;-87
2023/10/21 06:04:52;;;;;;;13.43;5.03;;;;;;;15.88;49.74;94742.72;5013213;28;20387;-86
2023/10/21 06:07:17;;;;;;;10.32;4.93;;;;;;;15.92;49.64;94742.53;5028942;28;20111;-86
2023/10/21 06:09:43;;;;;;;11.80;4.75;;;;;;;15.98;49.84;94732.31;5046876;28;20037;-87
2023/10/21 06:12:10;;;;;;;8.75;4.18;;;;;;;16.12;49.71;94761.31;5027738;28;20036;-84
2023/10/21 06:14:35;;;;;;;11.48;4.60;;;;;;;16.15;49.41;94757.56;5047311;28;20444;-87
2023/10/21 06:17:01;;;;;;;10.13;4.75;;;;;;;16.28;49.56;94754.50;5028485;28;20032;-85
2023/10/21 06:19:27;;;;;;;10.27;4.97;;;;;;;16.38;49.27;94761.50;5027889;28;20454;-82
2023/10/21 06:21:54;;;;;;;11.70;4.78;;;;;;;16.46;49.36;94754.34;5011963;28;20028;-84
2023/10/21 06:24:19;;;;;;;10.80;4.45;;;;;;;16.55;48.90;94750.66;5027925;28;20044;-86
2023/10/21 06:26:45;;;;;;;9.75;4.95;;;;;;;16.62;49.00;94767.69;5028907;28;20128;-87
2023/10/21 06:29:10;;;;;;;9.63;5.03;;;;;;;16.73;48.89;94784.53;5011509;28;20116;-87
2023/10/21 06:31:35;;;;;;;8.35;4.07;;;;;;;16.87;48.69;94757.25;5028370;28;20031;-87
2023/10/21 06:34:01;;;;;;;8.63;4.22;;;;;;;16.94;48.63;94774.28;5028555;28;20039;-88
2023/10/21 06:36:27;;;;;;;10.75;4.70;;;;;;;17.03;48.49;94781.69;5012441;28;20036;-87
2023/10/21 06:38:52;;;;;;;9.00;4.28;;;;;;;17.11;47.87;94774.50;5028744;28;20025;-87
2023/10/21 06:41:18;;;;;;;9.27;4.70;;;;;;;17.17;47.98;94761.47;5046018;28;20114;-88
2023/10/21 06:43:43;;;;;;;11.88;5.03;;;;;;;17.32;48.07;94777.31;5028968;28;20159;-87
2023/10/21 06:46:09;;;;;;;12.18;4.85;;;;;;;17.42;47.93;94787.03;5011608;28;20028;-87
2023/10/21 06:48:36;;;;;;;11.38;5.05;;;;;;;17.53;47.95;94776.84;5028645;28;20064;-87
2023/10/21 06:51:02;;;;;;;8.18;4.45;;;;;;;17.69;47.44;94783.84;5027830;28;20143;-86
2023/10/21 06:53:27;;;;;;;10.95;4.90;;;;;;;17.76;47.48;94788.25;5046561;28;20514;-87
2023/10/21 06:55:53;;;;;;;9.77;4.38;;;;;;;17.86;47.42;94777.75;5030304;28;20029;-86
2023/10/21 06:58:19;;;;;;;12.07;5.03;;;;;;;18.01;46.45;94781.22;5028669;28;20059;-87
2023/10/21 07:00:45;;;;;;;10.98;5.68;;;;;;;18.07;46.50;94768.16;5029225;28;20025;-87
2023/10/21 07:03:11;;;;;;;12.25;4.50;;;;;;;18.21;45.42;94775.59;5028042;28;20029;-87
2023/10/21 07:05:37;;;;;;;11.07;5.47;;;;;;;18.33;45.15;94778.50;5028702;28;20052;-87
2023/10/21 07:08:04;;;;;;;13.57;4.47;;;;;;;18.44;44.98;94767.47;5011287;28;20451;-87
2023/10/21 07:10:30;;;;;;;17.08;5.10;;;;;;;18.62;44.66;94763.56;5028372;28;20040;-85
2023/10/21 07:12:56;;;;;;;10.35;4.45;;;;;;;18.72;44.36;94770.53;5027992;28;20128;-86
2023/10/21 07:15:25;;;;;;;13.80;6.10;;;;;;;18.85;44.39;94765.28;5011873;28;20033;-87
2023/10/21 07:17:50;;;;;;;11.32;5.00;;;;;;;19.03;43.89;94767.69;5028698;28;20025;-87
2023/10/21 07:20:16;;;;;;;11.02;4.70;;;;;;;19.12;43.65;94768.78;5027859;28;20036;-86
2023/10/21 07:22:44;;;;;;;9.45;5.10;;;;;;;19.32;43.43;94782.56;5028832;28;20025;-86
2023/10/21 07:25:10;;;;;;;10.20;5.07;;;;;;;19.45;42.83;94779.38;5027203;28;20017;-86
2023/10/21 07:27:35;;;;;;;10.57;4.63;;;;;;;19.63;42.60;94781.75;5028338;28;20036;-85
2023/10/21 07:30:04;;;;;;;9.68;5.10;;;;;;;19.79;41.98;94777.53;5011005;28;20025;-86
2023/10/21 07:32:29;;;;;;;14.40;4.80;;;;;;;19.96;41.74;94769.22;5028420;28;20051;-86
2023/10/21 07:34:55;;;;;;;13.15;5.03;;;;;;;20.16;41.68;94774.56;5027395;28;20045;-86
2023/10/21 07:37:20;;;;;;;9.88;5.00;;;;;;;20.34;40.79;94782.47;5029976;28;20044;-85
2023/10/21 07:39:45;;;;;;;10.55;4.80;;;;;;;;;;5017979;28;20027;-86
2023/10/21 07:42:12;;;;;;;11.07;4.82;;;;;;;20.83;39.97;94771.91;5029914;28;20029;-85
2023/10/21 07:44:38;;;;;;;11.50;5.63;;;;;;;21.12;39.52;94781.03;5032244;28;20503;-85
2023/10/21 07:47:04;;;;;;;12.00;5.40;;;;;;;21.46;38.76;94778.94;5030939;28;20033;-86
2023/10/21 07:49:30;;;;;;;11.48;4.95;;;;;;;21.81;38.17;94783.91;5049453;28;20045;-84
2023/10/21 07:51:55;;;;;;;14.98;5.38;;;;;;;22.15;37.42;94781.00;5048790;28;20554;-84
2023/10/21 07:54:20;;;;;;;12.13;4.43;;;;;;;22.58;37.35;94784.03;5030397;28;20041;-82
2023/10/21 07:56:46;;;;;;;11.80;4.70;;;;;;;23.00;36.25;94781.97;5014223;28;20109;-82
2023/10/21 07:59:11;;;;;;;18.75;4.72;;;;;;;23.32;35.97;94779.38;5030273;28;20033;-85
2023/10/21 08:01:37;;;;;;;9.95;4.75;;;;;;;23.76;35.46;94774.59;5031193;28;20487;-81
2023/10/21 08:04:03;;;;;;;12.80;4.43;;;;;;;24.18;34.58;94775.09;5029642;28;20035;-82
2023/10/21 08:06:29;;;;;;;12.88;4.50;;;;;;;24.61;34.33;94789.84;5014106;28;20033;-82
2023/10/21 08:08:55;;;;;;;9.35;3.30;;;;;;;25.09;32.92;94782.47;5029661;28;20029;-84
2023/10/21 08:11:21;;;;;;;10.43;4.03;;;;;;;25.56;32.18;94773.47;5048188;28;20017;-84
2023/10/21 08:13:46;;;;;;;13.35;4.70;;;;;;;26.09;31.12;94773.50;5029931;28;20043;-82
2023/10/21 08:16:12;;;;;;;8.68;3.50;;;;;;;26.46;30.00;94782.97;5029925;28;20029;-82
2023/10/21 08:18:39;;;;;;;10.55;4.10;;;;;;;27.02;29.72;94781.69;5030663;28;20423;-82
2023/10/21 08:21:05;;;;;;;11.43;3.90;;;;;;;27.60;28.79;94776.91;5029115;28;20120;-83
2023/10/21 08:23:31;;;;;;;13.80;3.60;;;;;;;28.24;27.56;94767.69;5030381;28;20138;-84
2023/10/21 08:25:57;;;;;;;8.75;3.63;;;;;;;29.04;26.75;94773.25;5048346;28;20071;-84
2023/10/21 08:28:23;;;;;;;5.45;3.42;;;;;;;29.88;25.10;94762.66;5030266;28;20032;-83
2023/10/21 08:30:49;;;;;;;13.73;4.85;;;;;;;30.81;24.40;94777.28;5047544;28;20412;-84
2023/10/21 08:33:15;;;;;;;10.70;4.50;;;;;;;31.72;22.78;94770.22;5029887;28;20041;-84
2023/10/21 08:35:41;;;;;;;7.22;3.40;;;;;;;32.71;21.78;94766.28;5029783;28;20053;-86
2023/10/21 08:38:06;;;;;;;12.02;3.50;;;;;;;33.56;20.44;94754.44;5047451;28;20187;-85
2023/10/21 08:40:31;;;;;;;9.68;3.42;;;;;;;34.37;19.63;94764.78;5029837;28;20025;-84
2023/10/21 08:43:03;;;;;;;10.57;4.65;;;;;;;35.06;18.92;94770.59;5012542;28;20383;-85
2023/10/21 08:45:32;;;;;;;14.35;3.92;;;;;;;35.80;17.94;94759.31;5013675;28;20082;-85
2023/10/21 08:47:58;;;;;;;13.73;4.15;;;;;;;36.52;17.56;94756.25;5029474;28;20165;-85
2023/10/21 08:50:27;;;;;;;10.70;3.20;;;;;;;36.89;17.11;94755.78;5031365;28;20052;-85
2023/10/21 08:52:56;;;;;;;9.65;4.28;;;;;;;37.49;16.47;94735.19;5029474;28;20056;-87
2023/10/21 08:55:23;;;;;;;8.88;3.22;;;;;;;37.92;15.77;94741.41;5047150;28;20057;-86
2023/10/21 08:57:48;;;;;;;10.52;3.38;;;;;;;38.10;14.73;94738.13;5030563;28;20112;-86
2023/10/21 09:00:15;;;;;;;11.68;2.70;;;;;;;38.41;14.57;94741.41;5012951;28;20112;-86
2023/10/21 09:02:40;;;;;;;14.70;3.35;;;;;;;38.85;14.46;94736.00;5013517;28;20112;-86
2023/10/21 09:05:12;;;;;;;10.98;2.88;;;;;;;39.20;14.11;94745.19;5013070;28;20116;-86
2023/10/21 09:07:48;;;;;;;7.63;2.63;;;;;;;39.80;13.60;94749.09;5047412;28;20496;-86
2023/10/21 09:10:17;;;;;;;11.15;3.25;;;;;;;40.32;13.23;94742.47;5047547;28;20035;-85
2023/10/21 09:12:43;;;;;;;13.07;6.97;;;;;;;40.75;10.39;94738.84;5012390;28;20519;-86
2023/10/21 09:15:09;;;;;;;9.70;3.28;;;;;;;41.02;10.10;94743.03;5047780;28;20029;-85
2023/10/21 09:17:37;;;;;;;6.63;2.08;;;;;;;41.41;10.23;94739.84;5012053;28;20092;-85
2023/10/21 09:20:22;;;;;;;11.68;2.00;;;;;;;40.90;10.00;94730.91;5029408;28;20487;-85
2023/10/21 09:22:55;;;;;;;8.00;2.00;;;;;;;41.30;9.65;94724.19;5029143;28;20464;-85
2023/10/21 09:25:21;;;;;;;7.22;2.17;;;;;;;41.55;9.66;94733.97;5029816;28;20025;-85
2023/10/21 09:27:53;;;;;;;8.95;1.98;;;;;;;41.57;9.84;94731.91;5029442;28;20025;-86
2023/10/21 09:30:20;;;;;;;11.85;4.78;;;;;;;40.70;10.06;94737.16;5045940;28;20040;-85
2023/10/21 09:32:46;;;;;;;10.60;3.75;;;;;;;40.18;10.29;94726.63;5029280;28;20033;-84
2023/10/21 09:35:21;;;;;;;9.13;3.22;;;;;;;40.43;10.24;94729.31;5011774;28;20087;-85
2023/10/21 09:37:50;;;;;;;6.93;2.03;;;;;;;41.03;10.17;94725.06;5028844;28;20040;-85
2023/10/21 09:40:16;;;;;;;10.43;2.35;;;;;;;41.39;9.83;94728.94;5028631;28;20499;-85
2023/10/21 09:42:42;;;;;;;9.32;1.73;;;;;;;41.49;9.62;94710.63;5028371;28;20037;-84
2023/10/21 09:45:10;;;;;;;7.75;2.20;;;;;;;40.91;9.79;94720.84;5031151;28;20049;-85
2023/10/21 09:47:43;;;;;;;10.38;2.20;;;;;;;39.57;10.61;94724.13;5012684;28;20086;-85
2023/10/21 09:50:14;;;;;;;10.80;2.28;;;;;;;38.50;11.23;94711.81;5029419;28;20032;-85
2023/10/21 09:52:52;;;;;;;7.85;1.90;;;;;;;37.84;11.46;94700.03;5011409;28;20029;-85
2023/10/21 09:55:24;;;;;;;10.45;2.33;;;;;;;38.93;11.16;94733.59;5011886;28;20067;-85
2023/10/21 09:57:52;;;;;;;8.65;2.28;;;;;;;39.52;10.82;94705.22;5029526;28;20036;-85
2023/10/21 10:00:19;;;;;;;9.60;2.28;;;;;;;40.66;10.45;94713.16;5027864;28;20036;-85
2023/10/21 10:02:48;;;;;;;7.13;1.70;;;;;;;39.61;10.83;94701.38;5028844;28;20562;-86
2023/10/21 10:05:14;;;;;;;10.95;2.20;;;;;;;40.45;10.10;94694.88;5027982;28;20043;-85
2023/10/21 10:07:40;;;;;;;9.35;2.33;;;;;;;40.92;10.16;94696.44;5028031;28;20028;-84
2023/10/21 10:10:10;;;;;;;10.98;2.35;;;;;;;40.74;10.08;94685.50;5027737;28;20021;-85
2023/10/21 10:12:52;;;;;;;9.70;2.15;;;;;;;39.66;10.18;94685.84;5011769;28;20434;-85
2023/10/21 10:15:37;;;;;;;10.85;1.95;;;;;;;39.93;10.41;94679.31;5028180;28;20177;-86
2023/10/21 10:18:24;;;;;;;12.63;2.30;;;;;;;39.02;10.83;94686.69;5027720;28;20021;-85
2023/10/21 10:20:51;;;;;;;12.73;3.47;;;;;;;39.00;10.74;94657.84;5011491;28;20071;-85
2023/10/21 10:23:19;;;;;;;9.88;2.67;;;;;;;39.80;10.28;94654.94;5027893;28;20115;-85
2023/10/21 10:25:46;;;;;;;11.63;1.88;;;;;;;39.43;10.12;94631.41;5027827;28;20040;-85
2023/10/21 10:28:17;;;;;;;8.20;1.75;;;;;;;39.63;9.97;94657.59;5028363;28;20017;-85
2023/10/21 10:30:44;;;;;;;11.65;2.50;;;;;;;39.79;10.05;94644.06;5010805;28;20120;-86
2023/10/21 10:33:13;;;;;;;13.70;2.78;;;;;;;39.33;10.15;94645.97;5028388;28;20031;-86
2023/10/21 10:35:48;;;;;;;8.82;2.38;;;;;;;39.28;9.71;94632.78;5011094;28;20082;-85
2023/10/21 10:38:27;;;;;;;21.10;2.30;;;;;;;39.48;10.30;94635.97;5027996;28;20037;-86
2023/10/21 10:41:06;;;;;;;10.20;2.00;;;;;;;38.57;10.78;94623.16;5010880;28;20021;-85
2023/10/21 10:43:31;;;;;;;9.27;2.75;;;;;;;38.53;10.93;94624.41;5046367;28;20090;-85
2023/10/21 10:45:57;;;;;;;16.55;2.28;;;;;;;39.20;10.63;94623.72;5028131;28;20175;-85
2023/10/21 10:48:23;;;;;;;8.00;1.90;;;;;;;39.04;10.56;94632.19;5027665;28;20027;-85
2023/10/21 10:50:48;;;;;;;10.02;1.98;;;;;;;39.48;10.23;94638.84;5011380;28;20033;-85
2023/10/21 10:53:15;;;;;;;9.90;2.25;;;;;;;40.63;9.83;94623.03;5027293;28;20044;-85
2023/10/21 10:55:47;;;;;;;8.48;1.73;;;;;;;40.54;9.86;94624.03;5027577;28;20029;-85
2023/10/21 10:58:12;;;;;;;9.88;2.00;;;;;;;40.51;9.87;94666.41;5011064;28;20040;-86
2023/10/21 11:00:39;;;;;;;11.60;2.10;;;;;;;40.99;9.77;94644.19;5045104;28;20029;-85
2023/10/21 11:03:06;;;;;;;9.70;1.95;;;;;;;40.88;9.38;94639.31;5028257;28;20037;-85
2023/10/21 11:05:32;;;;;;;9.95;2.30;;;;;;;39.46;10.41;94659.63;5027280;28;20036;-85
2023/10/21 11:07:57;;;;;;;6.55;2.15;;;;;;;40.51;10.31;94633.97;5027285;28;20427;-84
2023/10/21 11:10:24;;;;;;;12.45;2.20;;;;;;;40.93;10.04;94666.97;5027093;28;20040;-85
2023/10/21 11:12:50;;;;;;;9.45;2.35;;;;;;;40.08;10.31;94611.72;5027673;28;20033;-85
2023/10/21 11:15:16;;;;;;;11.32;1.90;;;;;;;38.76;11.02;94622.78;5027038;28;20024;-84
2023/10/21 11:17:46;;;;;;;9.88;2.00;;;;;;;38.92;11.02;94626.53;5014043;28;20060;-83
2023/10/21 11:20:13;;;;;;;17.25;2.72;;;;;;;39.15;10.73;94622.00;5015480;28;20047;-85
2023/10/21 11:22:39;;;;;;;6.85;2.10;;;;;;;39.36;10.78;94603.72;5014392;28;20455;-84
2023/10/21 11:25:05;;;;;;;11.30;1.90;;;;;;;39.87;10.33;94609.22;5015113;28;20039;-84
2023/10/21 11:27:30;;;;;;;7.60;1.88;;;;;;;38.41;11.79;94611.50;5030910;28;20025;-84